createdAt,value
2023-02-12T00:06:47.786Z,86
2023-02-12T00:16:50.151Z,86
2023-02-12T00:26:52.752Z,86
2023-02-12T00:36:55.330Z,86
2023-02-12T00:46:57.724Z,86
2023-02-12T00:57:00.121Z,86
2023-02-12T01:07:01.961Z,87
2023-02-12T01:17:04.151Z,87
2023-02-12T01:27:06.533Z,87
2023-02-12T01:37:09.164Z,87
2023-02-12T01:47:11.457Z,87
2023-02-12T01:57:13.188Z,87
2023-02-12T02:07:15.464Z,87
2023-02-12T02:17:17.943Z,86
2023-02-12T02:27:20.385Z,86
2023-02-12T02:37:22.165Z,87
2023-02-12T02:47:24.455Z,87
2023-02-12T02:57:26.995Z,87
2023-02-12T03:07:29.059Z,87
2023-02-12T03:17:31.650Z,87
2023-02-12T03:27:33.456Z,87
2023-02-12T03:37:35.321Z,87
2023-02-12T03:47:37.037Z,87
2023-02-12T03:57:38.936Z,87
2023-02-12T04:07:40.781Z,87
2023-02-12T04:17:43.014Z,87
2023-02-12T04:27:45.092Z,87
2023-02-12T04:37:47.641Z,87
2023-02-12T04:47:49.515Z,87
2023-02-12T04:57:52.112Z,87
2023-02-12T05:07:54.066Z,87
2023-02-12T05:17:55.974Z,87
2023-02-12T05:27:58.408Z,87
2023-02-12T05:38:00.389Z,87
2023-02-12T05:48:02.227Z,87
2023-02-12T05:58:04.125Z,87
2023-02-12T06:08:05.846Z,87
2023-02-12T06:18:08.004Z,87
2023-02-12T06:28:10.180Z,87
2023-02-12T06:38:12.654Z,87
2023-02-12T06:58:16.653Z,87
2023-02-12T07:08:19.143Z,87
2023-02-12T07:18:20.915Z,87
2023-02-12T07:28:23.322Z,87
2023-02-12T07:38:25.207Z,87
2023-02-12T07:48:27.246Z,87
2023-02-12T07:58:29.510Z,86
2023-02-12T08:08:31.222Z,86
2023-02-12T08:18:33.756Z,86
2023-02-12T08:28:35.797Z,86
2023-02-12T08:38:37.712Z,85
2023-02-12T08:48:40.084Z,85
2023-02-12T09:08:43.702Z,84
2023-02-12T09:28:47.920Z,83
2023-02-12T09:38:50.217Z,83
2023-02-12T10:08:56.368Z,81
2023-02-12T10:18:58.409Z,81
2023-02-12T10:29:00.761Z,80
2023-02-12T10:39:02.667Z,80
2023-02-12T10:49:04.922Z,79
2023-02-12T10:59:07.317Z,79
2023-02-12T11:09:09.742Z,78
2023-02-12T11:19:11.585Z,78
2023-02-12T11:29:13.974Z,77
2023-02-12T11:39:16.174Z,76
2023-02-12T11:49:18.670Z,76
2023-02-12T11:59:20.602Z,75
2023-02-12T12:09:22.835Z,76
2023-02-12T12:19:25.008Z,75
2023-02-12T12:29:26.977Z,75
2023-02-12T12:39:29.198Z,75
2023-02-12T12:49:31.148Z,75
2023-02-12T12:59:33.296Z,75
2023-02-12T13:09:35.490Z,75
2023-02-12T13:19:37.432Z,75
2023-02-12T13:29:39.837Z,74
2023-02-12T13:39:42.355Z,74
2023-02-12T13:49:44.761Z,74
2023-02-12T13:59:46.964Z,74
2023-02-12T14:09:49.220Z,74
2023-02-12T14:19:51.270Z,74
2023-02-12T14:29:53.542Z,74
2023-02-12T14:39:55.851Z,74
2023-02-12T14:49:58.095Z,74
2023-02-12T14:59:59.792Z,74
2023-02-12T15:10:01.638Z,74
2023-02-12T15:20:04.079Z,74
2023-02-12T15:30:08.726Z,74
2023-02-12T15:40:08.681Z,74
2023-02-12T15:50:10.881Z,75
2023-02-12T16:00:12.930Z,75
2023-02-12T16:10:14.732Z,75
2023-02-12T16:20:16.617Z,75
2023-02-12T16:30:18.613Z,75
2023-02-12T16:40:20.344Z,75
2023-02-12T16:50:22.418Z,75
2023-02-12T17:00:24.450Z,76
2023-02-12T17:10:26.398Z,76
2023-02-12T17:20:28.891Z,76
2023-02-12T17:30:30.819Z,77
2023-02-12T17:40:33.285Z,77
2023-02-12T17:50:35.221Z,77
2023-02-12T18:00:37.006Z,77
2023-02-12T18:10:38.786Z,77
2023-02-12T18:20:40.845Z,77
2023-02-12T18:30:43.167Z,77
2023-02-12T18:40:45.245Z,77
2023-02-12T18:50:47.741Z,77
2023-02-12T19:00:49.648Z,77
2023-02-12T19:10:51.374Z,77
2023-02-12T19:20:53.696Z,77
2023-02-12T19:30:56.073Z,77
2023-02-12T19:40:58.075Z,78
2023-02-12T19:50:59.675Z,78
2023-02-12T20:11:03.596Z,78
2023-02-12T20:21:05.859Z,78
2023-02-12T20:31:07.766Z,78
2023-02-12T20:41:10.217Z,78
2023-02-12T20:51:12.654Z,78
2023-02-12T21:01:15.179Z,79
2023-02-12T21:11:17.069Z,79
2023-02-12T21:21:18.936Z,79
2023-02-12T21:31:21.308Z,79
2023-02-12T21:41:23.058Z,79
2023-02-12T21:51:24.907Z,79
2023-02-12T22:01:26.701Z,79
2023-02-12T22:11:28.847Z,79
2023-02-12T22:21:31.207Z,79
2023-02-12T22:31:33.494Z,80
2023-02-12T22:41:35.299Z,80
2023-02-12T22:51:37.499Z,80
2023-02-12T23:01:39.597Z,80
2023-02-12T23:11:41.734Z,80
2023-02-12T23:31:46.137Z,80
2023-02-12T23:32:07.999Z,80
2023-02-12T23:41:55.381Z,80
2023-02-12T23:51:57.886Z,80
